Time;durP1;ratioP1;P1;durP2;ratioP2;P2;SDS_P1;SDS_P2;PMS_P1;PMS_P2;Temp;Humidity;BMP_temperature;BMP_pressure;BME280_temperature;BME280_humidity;BME280_pressure;Samples;Min_cycle;Max_cycle;Signal;HPM_P1;HPM_P2
2021/10/17 00:01:13;;;;;;;0.40;0.30;;;;;;;10.05;97.22;101565.78;5055568;28;21009;-69
2021/10/17 00:03:39;;;;;;;5.70;3.43;;;;;;;10.07;97.51;101551.97;5055528;28;20928;-70
2021/10/17 00:06:06;;;;;;;0.80;0.80;;;;;;;10.07;98.09;101554.66;5055754;28;20466;-70
2021/10/17 00:08:32;;;;;;;0.40;0.30;;;;;;;10.11;98.22;101555.75;5055773;28;20434;-70
2021/10/17 00:11:00;;;;;;;0.40;0.30;;;;;;;10.13;98.05;101558.16;5055640;28;20442;-70
2021/10/17 00:13:27;;;;;;;0.40;0.30;;;;;;;10.06;98.52;101558.47;5055570;28;20486;-69
2021/10/17 00:15:54;;;;;;;0.40;0.30;;;;;;;10.09;98.93;101557.91;5055516;28;20449;-70
2021/10/17 00:18:20;;;;;;;0.40;0.30;;;;;;;10.11;98.23;101556.56;5055609;28;20863;-70
2021/10/17 00:20:47;;;;;;;0.40;0.30;;;;;;;10.09;98.95;101553.31;5055482;28;20446;-70
2021/10/17 00:23:13;;;;;;;0.40;0.30;;;;;;;10.09;98.80;101552.50;5055283;28;20451;-69
2021/10/17 00:25:40;;;;;;;0.40;0.30;;;;;;;10.10;98.34;101548.72;5055129;28;20450;-70
2021/10/17 00:28:07;;;;;;;0.40;0.30;;;;;;;10.11;98.26;101548.44;5055020;28;20473;-70
2021/10/17 00:30:34;;;;;;;0.40;0.30;;;;;;;10.11;97.67;101553.84;5054841;28;20940;-70
2021/10/17 00:33:00;;;;;;;0.40;0.30;;;;;;;10.06;96.43;101551.16;5054921;28;20489;-70
2021/10/17 00:35:27;;;;;;;0.40;0.30;;;;;;;10.02;95.75;101549.28;5054651;28;20923;-70
2021/10/17 00:37:54;;;;;;;0.40;0.20;;;;;;;9.98;94.96;101553.59;5054511;28;20469;-70
2021/10/17 00:40:21;;;;;;;0.40;0.30;;;;;;;9.95;94.32;101552.25;5055115;28;20442;-70
2021/10/17 00:42:49;;;;;;;0.40;0.30;;;;;;;9.89;94.15;101547.94;5054575;28;20874;-70
2021/10/17 00:45:20;;;;;;;0.40;0.30;;;;;;;9.82;94.44;101545.47;5054841;28;20453;-70
2021/10/17 00:47:47;;;;;;;0.50;0.50;;;;;;;9.77;95.23;101545.50;5054711;28;20467;-70
2021/10/17 00:50:13;;;;;;;0.40;0.30;;;;;;;9.78;96.08;101546.31;5054377;28;20449;-70
2021/10/17 00:52:44;;;;;;;0.70;0.70;;;;;;;9.81;96.76;101541.16;5054579;28;20485;-70
2021/10/17 00:55:13;;;;;;;2.70;2.50;;;;;;;9.84;97.00;101548.75;5055309;28;20441;-70
2021/10/17 00:57:40;;;;;;;0.40;0.27;;;;;;;9.89;96.63;101545.22;5053052;28;21014;-70
2021/10/17 01:00:08;;;;;;;0.40;0.30;;;;;;;9.95;96.19;101541.41;5054254;28;21042;-70
2021/10/17 01:02:36;;;;;;;0.40;0.30;;;;;;;9.95;95.60;101536.00;5054488;28;20442;-70
2021/10/17 01:05:03;;;;;;;0.50;0.40;;;;;;;10.00;95.58;101546.00;5054435;28;20439;-70
2021/10/17 01:07:29;;;;;;;0.40;0.30;;;;;;;9.95;96.29;101537.91;5054298;28;20477;-70
2021/10/17 01:09:56;;;;;;;0.40;0.30;;;;;;;9.99;96.66;101538.97;5054359;28;20442;-70
2021/10/17 01:12:22;;;;;;;0.40;0.30;;;;;;;10.00;96.71;101546.00;5054167;28;20493;-70
2021/10/17 01:14:49;;;;;;;0.40;0.30;;;;;;;9.99;96.82;101547.91;5054232;28;20468;-70
2021/10/17 01:17:16;;;;;;;0.40;0.30;;;;;;;10.02;96.63;101541.16;5053776;28;20888;-70
2021/10/17 01:19:47;;;;;;;0.40;0.30;;;;;;;10.00;96.49;101540.59;5054075;28;20500;-70
2021/10/17 01:22:14;;;;;;;0.40;0.27;;;;;;;9.99;96.21;101536.28;5054116;28;20434;-70
2021/10/17 01:24:41;;;;;;;0.40;0.30;;;;;;;10.02;96.15;101533.03;5053924;28;20936;-70
2021/10/17 01:27:07;;;;;;;0.40;0.30;;;;;;;10.02;95.15;101527.63;5053857;28;21045;-70
2021/10/17 01:29:33;;;;;;;0.40;0.30;;;;;;;9.94;93.14;101518.16;5054217;28;20450;-70
2021/10/17 01:32:00;;;;;;;0.40;0.30;;;;;;;9.92;92.42;101519.53;5053968;28;20850;-70
2021/10/17 01:34:27;;;;;;;0.40;0.23;;;;;;;9.84;91.61;101521.69;5053799;28;20482;-70
2021/10/17 01:36:55;;;;;;;0.40;0.30;;;;;;;9.78;91.88;101520.09;5053740;28;20458;-69
2021/10/17 01:39:23;;;;;;;0.40;0.30;;;;;;;9.75;91.75;101512.50;5053779;28;20438;-70
2021/10/17 01:41:50;;;;;;;0.40;0.30;;;;;;;9.74;92.00;101520.88;5053464;28;20461;-70
2021/10/17 01:44:26;;;;;;;0.40;0.20;;;;;;;9.79;91.91;101513.59;5054110;28;20434;-70
2021/10/17 01:46:53;;;;;;;0.40;0.30;;;;;;;9.81;92.40;101503.28;5053271;28;20490;-70
2021/10/17 01:49:19;;;;;;;0.40;0.20;;;;;;;9.88;93.04;101510.34;5053566;28;20446;-70
2021/10/17 01:51:46;;;;;;;0.40;0.30;;;;;;;9.90;92.91;101505.44;5053578;28;20449;-70
2021/10/17 01:54:14;;;;;;;0.40;0.30;;;;;;;9.89;92.51;101501.13;5069542;28;20481;-70
2021/10/17 01:56:41;;;;;;;0.40;0.30;;;;;;;9.89;92.82;101501.13;5073358;28;20461;-70
2021/10/17 01:59:07;;;;;;;0.40;0.30;;;;;;;9.87;92.75;101495.97;5073514;28;20437;-70
2021/10/17 02:01:34;;;;;;;0.40;0.30;;;;;;;9.88;91.85;101497.59;5073372;28;20445;-70
2021/10/17 02:04:02;;;;;;;0.40;0.23;;;;;;;9.91;92.42;101488.13;5073311;28;20434;-70
2021/10/17 02:06:30;;;;;;;0.40;0.30;;;;;;;9.93;93.21;101486.75;5073279;28;20461;-70
2021/10/17 02:08:57;;;;;;;0.40;0.30;;;;;;;9.95;93.38;101487.28;5073170;28;20441;-70
2021/10/17 02:11:24;;;;;;;0.40;0.30;;;;;;;9.94;92.73;101484.88;5073540;28;20429;-70
2021/10/17 02:13:51;;;;;;;0.40;0.27;;;;;;;9.89;93.18;101480.28;5073341;28;20483;-70
2021/10/17 02:16:18;;;;;;;0.40;0.30;;;;;;;9.89;94.00;101488.41;5073262;28;20465;-70
2021/10/17 02:18:44;;;;;;;0.40;0.30;;;;;;;9.91;94.23;101486.22;5073325;28;20445;-70
2021/10/17 02:21:11;;;;;;;0.40;0.30;;;;;;;9.81;93.30;101483.53;5073267;28;20448;-70
2021/10/17 02:23:38;;;;;;;0.40;0.30;;;;;;;9.79;92.94;101474.91;5072814;28;20962;-70
2021/10/17 02:26:05;;;;;;;0.40;0.30;;;;;;;9.76;92.12;101478.94;5073062;28;20598;-69
2021/10/17 02:28:32;;;;;;;0.40;0.30;;;;;;;9.78;91.18;101476.78;5073066;28;20445;-70
2021/10/17 02:30:59;;;;;;;0.40;0.30;;;;;;;9.68;90.52;101473.28;5073176;28;20441;-70
2021/10/17 02:33:26;;;;;;;0.40;0.30;;;;;;;9.66;90.18;101475.47;5072950;28;20481;-70
2021/10/17 02:35:53;;;;;;;0.40;0.30;;;;;;;9.65;90.76;101466.53;5072967;28;20445;-70
2021/10/17 02:38:19;;;;;;;0.40;0.30;;;;;;;9.71;91.06;101468.13;5073000;28;20436;-70
2021/10/17 02:40:46;;;;;;;0.40;0.30;;;;;;;9.74;90.69;101474.88;5073107;28;20491;-70
2021/10/17 02:43:13;;;;;;;0.40;0.30;;;;;;;9.75;90.37;101469.22;5072793;28;20445;-70
2021/10/17 02:45:41;;;;;;;0.40;0.23;;;;;;;9.77;91.34;101463.53;5073178;28;20828;-70
2021/10/17 02:48:07;;;;;;;0.40;0.30;;;;;;;9.79;91.02;101474.91;5073034;28;20473;-71
2021/10/17 02:50:34;;;;;;;0.40;0.30;;;;;;;9.77;91.55;101469.75;5072737;28;20935;-70
2021/10/17 02:53:00;;;;;;;0.40;0.30;;;;;;;9.80;92.39;101471.91;5072604;28;20934;-70
2021/10/17 02:55:27;;;;;;;0.40;0.30;;;;;;;9.76;91.80;101476.25;5073020;28;20440;-70
2021/10/17 02:57:53;;;;;;;0.40;0.30;;;;;;;9.77;92.01;101477.84;5072942;28;20457;-70
2021/10/17 03:00:20;;;;;;;0.40;0.30;;;;;;;9.77;92.10;101468.94;5072957;28;20456;-69
2021/10/17 03:02:48;;;;;;;0.40;0.30;;;;;;;9.80;92.37;101466.50;5072957;28;20445;-70
2021/10/17 03:05:14;;;;;;;0.40;0.30;;;;;;;9.84;92.61;101467.56;5072579;28;20440;-70
2021/10/17 03:07:41;;;;;;;0.40;0.20;;;;;;;9.80;93.27;101468.41;5072816;28;20465;-70
2021/10/17 03:10:08;;;;;;;0.40;0.30;;;;;;;9.80;93.41;101461.09;5072927;28;20495;-70
2021/10/17 03:12:35;;;;;;;0.40;0.30;;;;;;;9.80;92.93;101465.69;5072582;28;20794;-70
2021/10/17 03:15:02;;;;;;;0.40;0.30;;;;;;;9.79;92.06;101469.50;5072706;28;20535;-70
2021/10/17 03:17:28;;;;;;;0.40;0.30;;;;;;;9.74;91.24;101456.78;5072849;28;20472;-70
2021/10/17 03:19:56;;;;;;;0.40;0.30;;;;;;;9.70;91.05;101461.13;5073339;28;21012;-70
2021/10/17 03:22:22;;;;;;;4.00;3.50;;;;;;;9.62;90.00;101447.34;5076651;28;20445;-70
2021/10/17 03:24:49;;;;;;;0.40;0.30;;;;;;;9.54;88.92;101440.56;5076533;28;20449;-70
2021/10/17 03:27:15;;;;;;;0.40;0.30;;;;;;;9.46;88.74;101430.31;5076154;28;20974;-70
2021/10/17 03:29:42;;;;;;;0.40;0.30;;;;;;;9.41;88.86;101444.63;5076427;28;20441;-70
2021/10/17 03:32:08;;;;;;;0.40;0.30;;;;;;;9.34;89.02;101442.22;5076439;28;20441;-70
2021/10/17 03:34:34;;;;;;;0.40;0.30;;;;;;;9.30;88.91;101438.44;5076247;28;20477;-70
2021/10/17 03:37:02;;;;;;;0.40;0.30;;;;;;;9.24;88.33;101444.09;5076285;28;20800;-70
2021/10/17 03:39:29;;;;;;;0.40;0.30;;;;;;;9.17;89.75;101443.59;5076299;28;20452;-70
2021/10/17 03:41:55;;;;;;;0.40;0.30;;;;;;;9.07;91.30;101449.78;5076100;28;20470;-70
2021/10/17 03:44:22;;;;;;;0.50;0.43;;;;;;;9.04;91.73;101439.53;5076314;28;20421;-70
2021/10/17 03:46:48;;;;;;;0.40;0.30;;;;;;;8.99;91.60;101444.94;5076197;28;20831;-69
2021/10/17 03:49:15;;;;;;;0.40;0.30;;;;;;;8.90;92.36;101441.94;5076179;28;20441;-70
2021/10/17 03:51:41;;;;;;;0.40;0.30;;;;;;;8.85;92.60;101439.22;5076130;28;20441;-70
2021/10/17 03:54:09;;;;;;;0.40;0.30;;;;;;;8.76;93.10;101447.03;5076008;28;20477;-70
2021/10/17 03:56:35;;;;;;;1.80;1.70;;;;;;;8.71;93.28;101443.50;5075969;28;20457;-70
2021/10/17 03:59:02;;;;;;;0.40;0.30;;;;;;;8.67;93.65;101443.22;5075944;28;20445;-70
2021/10/17 04:01:30;;;;;;;0.40;0.30;;;;;;;8.61;93.99;101447.00;5075930;28;20445;-70
2021/10/17 04:03:56;;;;;;;0.40;0.30;;;;;;;8.61;94.16;101443.50;5075884;28;20437;-70
2021/10/17 04:06:23;;;;;;;0.67;0.67;;;;;;;8.55;94.36;101439.97;5075722;28;20457;-70
2021/10/17 04:08:49;;;;;;;0.40;0.30;;;;;;;8.48;94.65;101439.41;5075504;28;20958;-70
2021/10/17 04:11:17;;;;;;;0.40;0.30;;;;;;;8.38;94.82;101437.50;5075794;28;20445;-70
2021/10/17 04:13:43;;;;;;;0.40;0.30;;;;;;;8.34;95.06;101439.88;5075193;28;21032;-70
2021/10/17 04:16:10;;;;;;;0.40;0.30;;;;;;;8.19;94.61;101447.94;5075213;28;20988;-70
2021/10/17 04:18:37;;;;;;;0.40;0.20;;;;;;;8.17;93.88;101444.66;5075334;28;20862;-70
2021/10/17 04:21:04;;;;;;;0.40;0.30;;;;;;;8.13;93.27;101438.19;5075506;28;20490;-70
2021/10/17 04:23:30;;;;;;;0.40;0.27;;;;;;;8.04;92.70;101439.75;5075531;28;20559;-70
2021/10/17 04:25:56;;;;;;;0.40;0.30;;;;;;;7.95;92.79;101435.94;5075363;28;20464;-70
2021/10/17 04:28:24;;;;;;;0.40;0.30;;;;;;;7.80;93.31;101433.97;5075446;28;20438;-70
2021/10/17 04:30:51;;;;;;;0.40;0.30;;;;;;;7.86;93.13;101440.19;5075097;28;20437;-70
2021/10/17 04:33:17;;;;;;;0.40;0.30;;;;;;;7.77;93.34;101437.19;5075540;28;20454;-70
2021/10/17 04:35:45;;;;;;;0.40;0.30;;;;;;;7.78;93.34;101430.72;5075197;28;20481;-70
2021/10/17 04:38:13;;;;;;;0.40;0.30;;;;;;;7.76;94.76;101440.97;5075203;28;20465;-70
2021/10/17 04:40:42;;;;;;;0.40;0.30;;;;;;;7.75;95.88;101434.75;5074859;28;20947;-69
2021/10/17 04:43:11;;;;;;;0.40;0.30;;;;;;;7.75;96.43;101433.94;5074731;28;20461;-70
2021/10/17 04:45:41;;;;;;;0.40;0.30;;;;;;;7.75;96.59;101434.75;5074715;28;20441;-70
2021/10/17 04:48:07;;;;;;;0.40;0.30;;;;;;;7.77;96.97;101435.31;5074933;28;20453;-70
2021/10/17 04:50:34;;;;;;;0.40;0.30;;;;;;;7.73;97.25;101431.50;5074985;28;20443;-70
2021/10/17 04:53:00;;;;;;;0.40;0.30;;;;;;;7.69;97.13;101430.41;5074881;28;20448;-70
2021/10/17 04:55:27;;;;;;;0.40;0.30;;;;;;;7.67;97.07;101429.84;5074721;28;20481;-70
2021/10/17 04:57:53;;;;;;;0.40;0.30;;;;;;;7.62;97.67;101427.13;5074731;28;20469;-69
2021/10/17 05:00:20;;;;;;;0.40;0.30;;;;;;;7.56;97.71;101431.66;5074731;28;20464;-69
2021/10/17 05:02:47;;;;;;;0.40;0.30;;;;;;;7.57;97.49;101435.19;5074513;28;20437;-70
2021/10/17 05:05:14;;;;;;;0.40;0.30;;;;;;;7.52;97.87;101433.25;5074636;28;20441;-70
2021/10/17 05:07:41;;;;;;;0.40;0.40;;;;;;;7.53;97.71;101431.38;5074190;28;20514;-70
2021/10/17 05:10:08;;;;;;;0.43;0.37;;;;;;;7.46;97.68;101434.28;5074261;28;21007;-70
2021/10/17 05:12:35;;;;;;;0.40;0.30;;;;;;;7.41;98.01;101430.75;5074486;28;20441;-70
2021/10/17 05:15:01;;;;;;;0.40;0.30;;;;;;;7.28;97.59;101432.00;5074379;28;20489;-70
2021/10/17 05:17:27;;;;;;;0.40;0.30;;;;;;;7.26;96.97;101434.13;5074390;28;20457;-70
2021/10/17 05:19:55;;;;;;;0.40;0.20;;;;;;;7.26;97.62;101445.75;5074367;28;20450;-70
2021/10/17 05:22:21;;;;;;;0.40;0.30;;;;;;;7.34;97.17;101437.16;5074609;28;20441;-69
2021/10/17 05:24:48;;;;;;;0.40;0.30;;;;;;;7.40;97.25;101439.94;5074278;28;20810;-70
2021/10/17 05:27:14;;;;;;;0.40;0.30;;;;;;;7.51;97.38;101436.22;5074162;28;20523;-70
2021/10/17 05:29:41;;;;;;;0.40;0.30;;;;;;;7.58;97.75;101436.81;5075680;28;20429;-70
2021/10/17 05:32:07;;;;;;;0.40;0.30;;;;;;;7.65;97.11;101441.97;5074092;28;20463;-70
2021/10/17 05:34:34;;;;;;;0.40;0.30;;;;;;;7.72;96.89;101431.78;5074045;28;20488;-70
2021/10/17 05:37:01;;;;;;;0.40;0.30;;;;;;;7.78;97.30;101442.31;5074006;28;20465;-70
2021/10/17 05:39:28;;;;;;;0.40;0.30;;;;;;;7.86;97.05;101434.81;5074008;28;20438;-70
2021/10/17 05:41:54;;;;;;;2.30;2.20;;;;;;;7.93;96.21;101441.59;5073650;28;20856;-70
2021/10/17 05:44:21;;;;;;;0.40;0.20;;;;;;;7.97;95.30;101448.09;5073547;28;20422;-70
2021/10/17 05:46:47;;;;;;;0.40;0.30;;;;;;;8.07;94.68;101450.84;5073778;28;20464;-70
2021/10/17 05:49:13;;;;;;;0.40;0.30;;;;;;;8.15;94.89;101446.03;5073595;28;20449;-70
2021/10/17 05:51:40;;;;;;;0.40;0.30;;;;;;;8.20;93.88;101451.44;5073242;28;20452;-70
2021/10/17 05:54:08;;;;;;;0.40;0.30;;;;;;;8.27;93.35;101452.00;5073575;28;20481;-70
2021/10/17 05:56:34;;;;;;;0.40;0.30;;;;;;;8.31;92.25;101453.91;5073735;28;20470;-70
2021/10/17 05:59:00;;;;;;;0.40;0.30;;;;;;;8.32;92.12;101449.31;5073644;28;20548;-70
2021/10/17 06:01:27;;;;;;;0.40;0.30;;;;;;;8.34;93.07;101461.47;5054843;28;20867;-70
2021/10/17 06:03:53;;;;;;;0.40;0.30;;;;;;;8.38;92.59;101458.28;5053540;28;20446;-70
2021/10/17 06:06:20;;;;;;;0.40;0.30;;;;;;;8.46;92.10;101463.19;5053434;28;20462;-70
2021/10/17 06:08:47;;;;;;;0.40;0.30;;;;;;;8.49;91.91;101451.81;5053317;28;20453;-70
2021/10/17 06:11:14;;;;;;;0.40;0.30;;;;;;;8.54;91.19;101454.53;5053425;28;20564;-70
2021/10/17 06:13:41;;;;;;;0.40;0.30;;;;;;;8.56;90.55;101458.59;5053424;28;20465;-70
2021/10/17 06:16:07;;;;;;;0.40;0.30;;;;;;;8.59;90.06;101452.69;5053300;28;20512;-70
2021/10/17 06:18:34;;;;;;;0.40;0.30;;;;;;;8.63;89.96;101468.34;5053388;28;20434;-70
2021/10/17 06:21:02;;;;;;;0.40;0.30;;;;;;;8.65;89.46;101460.78;5053310;28;20438;-70
2021/10/17 06:23:28;;;;;;;0.40;0.30;;;;;;;8.66;89.59;101465.13;5053200;28;20454;-70
2021/10/17 06:25:55;;;;;;;0.40;0.30;;;;;;;8.69;89.41;101461.88;5052867;28;20939;-70
2021/10/17 06:28:22;;;;;;;0.40;0.30;;;;;;;8.72;89.05;101472.13;5053296;28;20445;-70
2021/10/17 06:30:49;;;;;;;0.40;0.30;;;;;;;8.76;89.09;101465.94;5053157;28;20442;-69
2021/10/17 06:33:16;;;;;;;0.40;0.30;;;;;;;8.77;89.17;101459.47;5052889;28;20442;-70
2021/10/17 06:35:42;;;;;;;0.40;0.30;;;;;;;8.83;89.20;101466.50;5053009;28;20513;-70
2021/10/17 06:38:08;;;;;;;0.40;0.30;;;;;;;8.87;88.73;101464.09;5053062;28;20469;-70
2021/10/17 06:40:35;;;;;;;0.40;0.30;;;;;;;8.87;88.38;101468.69;5053186;28;20441;-70
2021/10/17 06:43:02;;;;;;;0.40;0.30;;;;;;;8.86;88.83;101469.75;5052783;28;20461;-70
2021/10/17 06:45:30;;;;;;;0.40;0.30;;;;;;;8.87;89.41;101474.09;5053003;28;20442;-70
2021/10/17 06:47:56;;;;;;;0.40;0.30;;;;;;;8.92;88.42;101476.78;5052981;28;20493;-70
2021/10/17 06:50:23;;;;;;;0.40;0.30;;;;;;;8.94;88.11;101480.84;5070199;28;20473;-70
2021/10/17 06:52:50;;;;;;;0.40;0.30;;;;;;;8.96;86.93;101478.69;5072977;28;20441;-70
2021/10/17 06:55:16;;;;;;;0.40;0.30;;;;;;;8.99;87.28;101482.75;5074574;28;20481;-70
2021/10/17 06:57:45;;;;;;;0.40;0.30;;;;;;;9.03;87.00;101475.72;5077201;28;20464;-70
2021/10/17 07:00:12;;;;;;;0.40;0.30;;;;;;;9.05;86.12;101473.56;5077087;28;20452;-70
2021/10/17 07:02:39;;;;;;;0.40;0.30;;;;;;;9.08;86.57;101470.34;5077043;28;20441;-70
2021/10/17 07:05:06;;;;;;;0.40;0.30;;;;;;;9.13;86.60;101470.34;5076936;28;20441;-70
2021/10/17 07:07:33;;;;;;;0.40;0.30;;;;;;;9.16;85.26;101471.66;5076892;28;20461;-70
2021/10/17 07:10:00;;;;;;;0.40;0.30;;;;;;;9.18;85.57;101474.94;5076727;28;20448;-70
2021/10/17 07:12:26;;;;;;;0.70;0.60;;;;;;;9.21;84.42;101477.06;5077024;28;20452;-70
2021/10/17 07:14:53;;;;;;;0.40;0.30;;;;;;;9.25;84.90;101473.59;5076701;28;20846;-69
2021/10/17 07:17:19;;;;;;;0.40;0.30;;;;;;;9.33;85.40;101483.03;5076682;28;20465;-70
2021/10/17 07:19:47;;;;;;;0.40;0.30;;;;;;;9.40;85.10;101480.88;5076692;28;20441;-70
2021/10/17 07:22:14;;;;;;;0.40;0.30;;;;;;;9.45;84.13;101482.78;5076635;28;20464;-70
2021/10/17 07:24:40;;;;;;;0.40;0.23;;;;;;;9.46;84.41;101484.38;5076652;28;20471;-70
2021/10/17 07:27:07;;;;;;;0.40;0.40;;;;;;;9.50;84.94;101478.16;5073448;28;20497;-70
2021/10/17 07:29:33;;;;;;;0.40;0.30;;;;;;;9.54;84.96;101481.16;5056537;28;20475;-70
2021/10/17 07:31:59;;;;;;;0.40;0.30;;;;;;;9.60;85.38;101482.75;5056452;28;20449;-70
2021/10/17 07:34:26;;;;;;;0.40;0.30;;;;;;;9.67;84.79;101486.00;5056277;28;20457;-70
2021/10/17 07:36:54;;;;;;;0.40;0.30;;;;;;;9.75;84.11;101498.97;5056339;28;20465;-70
2021/10/17 07:39:21;;;;;;;0.40;0.30;;;;;;;9.79;83.83;101497.34;5056250;28;20446;-70
2021/10/17 07:41:48;;;;;;;0.40;0.30;;;;;;;9.80;85.91;101495.44;5056066;28;20449;-69
2021/10/17 07:44:16;;;;;;;0.40;0.30;;;;;;;9.91;85.65;101494.34;5056277;28;20504;-70
2021/10/17 07:46:42;;;;;;;0.40;0.30;;;;;;;9.99;85.74;101509.22;5056174;28;20520;-70
2021/10/17 07:49:08;;;;;;;0.40;0.30;;;;;;;10.05;84.58;101506.22;5055816;28;20939;-70
2021/10/17 07:51:35;;;;;;;0.40;0.30;;;;;;;10.16;85.17;101511.59;5055998;28;20450;-70
2021/10/17 07:54:03;;;;;;;0.40;0.30;;;;;;;10.17;85.90;101500.50;5055768;28;20438;-70
2021/10/17 07:56:29;;;;;;;0.40;0.27;;;;;;;10.20;83.56;101507.25;5055879;28;20497;-70
2021/10/17 07:58:56;;;;;;;0.40;0.30;;;;;;;10.28;81.58;101502.13;5055939;28;20480;-70
2021/10/17 08:01:22;;;;;;;0.40;0.30;;;;;;;10.28;82.12;101504.03;5055920;28;20794;-70
2021/10/17 08:03:48;;;;;;;0.40;0.30;;;;;;;10.24;81.65;101501.06;5055757;28;20446;-70
2021/10/17 08:06:15;;;;;;;0.40;0.30;;;;;;;10.28;81.85;101504.03;5066114;28;20881;-70
2021/10/17 08:08:41;;;;;;;0.40;0.30;;;;;;;10.33;81.14;101501.28;5075753;28;20448;-70
2021/10/17 08:11:09;;;;;;;0.40;0.30;;;;;;;10.40;81.69;101500.97;5075754;28;20438;-70
2021/10/17 08:13:36;;;;;;;0.40;0.30;;;;;;;10.36;80.50;101489.91;5075609;28;20442;-70
2021/10/17 08:16:03;;;;;;;4.73;4.37;;;;;;;10.40;80.91;101498.28;5075518;28;20527;-70
2021/10/17 08:18:29;;;;;;;0.40;0.30;;;;;;;10.52;81.04;101498.78;5075653;28;20437;-69
2021/10/17 08:20:56;;;;;;;0.40;0.30;;;;;;;10.59;81.50;101491.16;5075570;28;20441;-69
2021/10/17 08:23:22;;;;;;;0.40;0.20;;;;;;;10.60;82.88;101498.19;5075514;28;20855;-70
2021/10/17 08:25:49;;;;;;;0.40;0.30;;;;;;;10.61;83.38;101502.53;5075451;28;20441;-70
2021/10/17 08:28:17;;;;;;;0.40;0.30;;;;;;;10.51;82.24;101497.16;5075434;28;20442;-70
2021/10/17 08:30:44;;;;;;;0.40;0.30;;;;;;;10.57;82.47;101496.03;5075420;28;20441;-70
2021/10/17 08:33:11;;;;;;;0.40;0.30;;;;;;;10.66;82.12;101493.56;5075348;28;20484;-70
2021/10/17 08:35:37;;;;;;;0.40;0.30;;;;;;;10.73;81.32;101500.31;5075189;28;20481;-70
2021/10/17 08:38:04;;;;;;;0.40;0.30;;;;;;;10.85;81.73;101497.25;5075092;28;20844;-70
2021/10/17 08:40:30;;;;;;;0.40;0.20;;;;;;;10.97;80.68;101488.75;5075180;28;20464;-70
2021/10/17 08:42:58;;;;;;;0.40;0.30;;;;;;;11.14;79.56;101491.91;5074902;28;20879;-70
2021/10/17 08:45:26;;;;;;;0.40;0.30;;;;;;;11.24;78.50;101489.09;5075055;28;20434;-70
2021/10/17 08:47:53;;;;;;;0.97;0.97;;;;;;;11.29;77.96;101486.38;5074973;28;20845;-70
2021/10/17 08:50:20;;;;;;;0.40;0.30;;;;;;;11.25;77.81;101489.94;5074985;28;20445;-70
2021/10/17 08:52:47;;;;;;;0.40;0.40;;;;;;;11.19;78.96;101486.44;5074830;28;20445;-70
2021/10/17 08:55:13;;;;;;;0.40;0.20;;;;;;;11.14;77.83;101478.34;5074840;28;20477;-70
2021/10/17 08:57:40;;;;;;;0.40;0.30;;;;;;;11.16;78.77;101478.88;5074792;28;20461;-70
2021/10/17 09:00:27;;;;;;;0.40;0.30;;;;;;;11.21;78.35;101478.84;5074527;28;20441;-70
2021/10/17 09:02:54;;;;;;;0.40;0.30;;;;;;;11.28;78.61;101481.22;5074478;28;20952;-70
2021/10/17 09:05:33;;;;;;;0.40;0.27;;;;;;;11.46;76.36;101480.53;5074631;28;20437;-70
2021/10/17 09:07:59;;;;;;;0.40;0.30;;;;;;;11.67;75.42;101470.28;5074572;28;20511;-70
2021/10/17 09:10:26;;;;;;;0.40;0.30;;;;;;;11.84;73.17;101473.41;5074563;28;20499;-70
2021/10/17 09:12:52;;;;;;;0.40;0.30;;;;;;;12.03;72.99;101467.25;5074582;28;20449;-70
2021/10/17 09:15:21;;;;;;;0.40;0.30;;;;;;;12.10;71.18;101473.16;5074433;28;20488;-70
2021/10/17 09:21:01;;;;;;;0.40;0.30;;;;;;;12.26;72.77;101471.03;5090907;28;20525;-70
2021/10/17 09:23:45;;;;;;;0.40;0.30;;;;;;;12.32;70.30;101465.25;5090824;28;20428;-70
2021/10/17 09:26:20;;;;;;;0.40;0.30;;;;;;;12.40;71.28;101463.00;5090676;28;20529;-70
2021/10/17 09:28:48;;;;;;;0.40;0.30;;;;;;;12.42;71.03;101467.03;5090745;28;20421;-70
2021/10/17 09:31:16;;;;;;;0.40;0.30;;;;;;;12.34;71.35;101468.50;5090616;28;20445;-70
2021/10/17 09:33:45;;;;;;;0.40;0.27;;;;;;;12.36;71.78;101469.03;5090536;28;20449;-70
2021/10/17 09:36:22;;;;;;;0.40;0.20;;;;;;;12.42;71.37;101469.75;5090198;28;20993;-70
2021/10/17 09:38:51;;;;;;;0.40;0.30;;;;;;;12.48;71.42;101475.94;5090444;28;20817;-70
2021/10/17 09:41:21;;;;;;;0.40;0.20;;;;;;;12.45;69.68;101474.63;5089648;28;20483;-70
2021/10/17 09:43:52;;;;;;;0.40;0.30;;;;;;;12.44;71.64;101472.16;5090400;28;20448;-70
2021/10/17 09:46:19;;;;;;;0.40;0.30;;;;;;;12.46;71.04;101481.66;5090425;28;20452;-70
2021/10/17 09:48:46;;;;;;;0.40;0.20;;;;;;;12.44;68.86;101483.03;5090320;28;20437;-70
2021/10/17 09:51:14;;;;;;;0.40;0.30;;;;;;;12.66;69.07;101480.59;5090212;28;20451;-69
2021/10/17 09:53:47;;;;;;;0.40;0.20;;;;;;;12.78;70.47;101477.44;5090185;28;20441;-70
2021/10/17 09:56:24;;;;;;;0.40;0.27;;;;;;;12.91;69.89;101476.69;5090140;28;20471;-70
2021/10/17 09:58:52;;;;;;;0.40;0.30;;;;;;;12.99;68.50;101484.19;5090092;28;20496;-70
2021/10/17 10:01:20;;;;;;;0.40;0.30;;;;;;;13.06;68.49;101473.75;5089742;28;20883;-70
2021/10/17 10:03:47;;;;;;;0.40;0.30;;;;;;;13.15;68.34;101473.91;5089989;28;20448;-70
2021/10/17 10:06:14;;;;;;;0.40;0.30;;;;;;;13.25;69.05;101481.91;5089894;28;20534;-70
2021/10/17 10:08:42;;;;;;;0.40;0.30;;;;;;;13.33;69.06;101477.72;5089867;28;20452;-70
2021/10/17 10:11:10;;;;;;;0.40;0.30;;;;;;;13.30;67.79;101487.28;5089606;28;20440;-70
2021/10/17 10:13:37;;;;;;;0.40;0.30;;;;;;;13.31;68.71;101480.72;5089802;28;20486;-70
2021/10/17 10:16:05;;;;;;;0.40;0.30;;;;;;;13.26;68.46;101477.28;5089620;28;20444;-70
2021/10/17 10:18:33;;;;;;;0.40;0.20;;;;;;;13.30;68.80;101481.03;5089506;28;20441;-70
2021/10/17 10:20:59;;;;;;;0.40;0.30;;;;;;;13.53;69.95;101479.28;5089983;28;20432;-70
2021/10/17 10:23:26;;;;;;;0.40;0.20;;;;;;;13.73;68.18;101475.41;5089724;28;20483;-70
2021/10/17 10:25:53;;;;;;;0.40;0.30;;;;;;;13.52;68.51;101474.94;5089238;28;20957;-70
2021/10/17 10:28:25;;;;;;;0.40;0.30;;;;;;;13.61;68.30;101462.25;5089717;28;20436;-70
2021/10/17 10:30:52;;;;;;;0.40;0.30;;;;;;;13.54;68.23;101465.34;5082473;28;20421;-70
2021/10/17 10:33:20;;;;;;;0.40;0.27;;;;;;;13.72;68.42;101471.84;5075811;28;20442;-70
2021/10/17 10:36:10;;;;;;;0.40;0.30;;;;;;;13.89;68.05;101479.44;5075690;28;20445;-70
2021/10/17 10:39:18;;;;;;;0.40;0.30;;;;;;;14.01;68.25;101482.47;5075615;28;20449;-70
2021/10/17 10:42:17;;;;;;;0.40;0.30;;;;;;;14.03;66.45;101491.16;5075810;28;20428;-70
2021/10/17 10:44:45;;;;;;;0.40;0.20;;;;;;;13.81;68.31;101499.19;5075793;28;20433;-70
2021/10/17 10:47:23;;;;;;;0.40;0.30;;;;;;;13.69;68.54;101491.53;5075646;28;20492;-70
2021/10/17 10:49:51;;;;;;;0.40;0.30;;;;;;;13.56;68.27;101493.09;5075672;28;20440;-70
2021/10/17 10:52:44;;;;;;;0.40;0.30;;;;;;;13.66;69.18;101491.31;5075608;28;20444;-70
2021/10/17 10:55:14;;;;;;;0.40;0.20;;;;;;;13.75;70.26;101494.94;5075607;28;20469;-70
2021/10/17 10:57:42;;;;;;;0.40;0.30;;;;;;;13.85;68.96;101492.03;5075402;28;20465;-70
2021/10/17 11:00:12;;;;;;;0.40;0.30;;;;;;;14.01;68.58;101493.38;5075305;28;20488;-70
2021/10/17 11:02:39;;;;;;;0.40;0.30;;;;;;;14.07;68.34;101499.53;5055476;28;20485;-70
2021/10/17 11:05:14;;;;;;;0.40;0.30;;;;;;;14.28;69.28;101506.19;5055272;28;20484;-69
2021/10/17 11:07:42;;;;;;;0.40;0.30;;;;;;;14.26;68.71;101496.72;5055136;28;20496;-70
2021/10/17 11:10:43;;;;;;;0.40;0.30;;;;;;;13.85;68.39;101506.47;5055278;28;20441;-70
2021/10/17 11:13:12;;;;;;;0.40;0.30;;;;;;;13.82;68.33;101501.63;5055192;28;20430;-70
2021/10/17 11:15:44;;;;;;;0.40;0.30;;;;;;;13.57;69.78;101491.19;5054798;28;20493;-70
2021/10/17 11:18:12;;;;;;;0.40;0.30;;;;;;;13.61;69.76;101484.03;5055025;28;20541;-70
2021/10/17 11:20:40;;;;;;;0.40;0.20;;;;;;;13.70;69.54;101482.25;5055024;28;20482;-70
2021/10/17 11:23:16;;;;;;;0.40;0.20;;;;;;;13.82;69.54;101485.28;5055065;28;20442;-70
2021/10/17 11:25:51;;;;;;;0.40;0.30;;;;;;;13.79;70.46;101485.06;5055021;28;20434;-70
2021/10/17 11:28:17;;;;;;;0.40;0.30;;;;;;;14.14;70.46;101489.03;5054982;28;20426;-70
2021/10/17 11:30:45;;;;;;;0.40;0.30;;;;;;;14.34;69.36;101496.00;5056366;28;20443;-70
2021/10/17 11:33:19;;;;;;;0.40;0.30;;;;;;;14.26;68.56;101491.28;5054908;28;20446;-70
2021/10/17 11:35:46;;;;;;;0.40;0.20;;;;;;;14.15;68.96;101504.28;5054519;28;20907;-70